sensor_id;sensor_type;location;lat;lon;timestamp;P1;durP1;ratioP1;P2;durP2;ratioP2
57846;SDS011;43675;50.030;21.952;2023-04-25T00:00:29;22.90;;;21.00;;
57846;SDS011;43675;50.030;21.952;2023-04-25T00:03:15;23.10;;;21.10;;
57846;SDS011;43675;50.030;21.952;2023-04-25T00:05:41;23.60;;;21.50;;
57846;SDS011;43675;50.030;21.952;2023-04-25T00:08:08;24.20;;;22.20;;
57846;SDS011;43675;50.030;21.952;2023-04-25T00:10:34;24.30;;;22.10;;
57846;SDS011;43675;50.030;21.952;2023-04-25T00:13:01;24.40;;;22.20;;
57846;SDS011;43675;50.030;21.952;2023-04-25T00:15:28;24.20;;;22.10;;
57846;SDS011;43675;50.030;21.952;2023-04-25T00:17:55;23.20;;;21.20;;
57846;SDS011;43675;50.030;21.952;2023-04-25T00:20:21;23.80;;;21.80;;
57846;SDS011;43675;50.030;21.952;2023-04-25T00:22:48;24.90;;;22.70;;
57846;SDS011;43675;50.030;21.952;2023-04-25T00:25:14;23.70;;;21.70;;
57846;SDS011;43675;50.030;21.952;2023-04-25T00:27:41;23.10;;;21.20;;
57846;SDS011;43675;50.030;21.952;2023-04-25T00:30:08;23.80;;;21.80;;
57846;SDS011;43675;50.030;21.952;2023-04-25T00:32:35;24.30;;;22.10;;
57846;SDS011;43675;50.030;21.952;2023-04-25T00:35:01;23.70;;;21.70;;
57846;SDS011;43675;50.030;21.952;2023-04-25T00:37:28;24.70;;;22.60;;
57846;SDS011;43675;50.030;21.952;2023-04-25T00:39:54;23.30;;;21.20;;
57846;SDS011;43675;50.030;21.952;2023-04-25T00:42:21;23.40;;;21.30;;
57846;SDS011;43675;50.030;21.952;2023-04-25T00:44:47;23.40;;;21.50;;
57846;SDS011;43675;50.030;21.952;2023-04-25T00:47:15;23.30;;;21.30;;
57846;SDS011;43675;50.030;21.952;2023-04-25T00:49:42;23.50;;;21.60;;
57846;SDS011;43675;50.030;21.952;2023-04-25T00:52:08;24.90;;;22.80;;
57846;SDS011;43675;50.030;21.952;2023-04-25T00:54:36;24.20;;;22.30;;
57846;SDS011;43675;50.030;21.952;2023-04-25T00:57:02;23.40;;;21.40;;
57846;SDS011;43675;50.030;21.952;2023-04-25T00:59:29;24.60;;;22.40;;
57846;SDS011;43675;50.030;21.952;2023-04-25T01:01:56;24.80;;;22.60;;
57846;SDS011;43675;50.030;21.952;2023-04-25T01:04:23;24.40;;;22.50;;
57846;SDS011;43675;50.030;21.952;2023-04-25T01:06:50;24.20;;;22.20;;
57846;SDS011;43675;50.030;21.952;2023-04-25T01:09:17;24.70;;;22.60;;
57846;SDS011;43675;50.030;21.952;2023-04-25T01:11:45;23.80;;;21.80;;
57846;SDS011;43675;50.030;21.952;2023-04-25T01:14:11;24.50;;;22.40;;
57846;SDS011;43675;50.030;21.952;2023-04-25T01:16:38;24.40;;;22.40;;
57846;SDS011;43675;50.030;21.952;2023-04-25T01:19:07;24.10;;;22.10;;
57846;SDS011;43675;50.030;21.952;2023-04-25T01:21:35;24.80;;;22.70;;
57846;SDS011;43675;50.030;21.952;2023-04-25T01:24:02;24.70;;;22.60;;
57846;SDS011;43675;50.030;21.952;2023-04-25T01:26:29;24.40;;;22.30;;
57846;SDS011;43675;50.030;21.952;2023-04-25T01:28:56;25.80;;;23.50;;
57846;SDS011;43675;50.030;21.952;2023-04-25T01:31:24;25.20;;;23.00;;
57846;SDS011;43675;50.030;21.952;2023-04-25T01:33:51;25.20;;;23.10;;
57846;SDS011;43675;50.030;21.952;2023-04-25T01:36:18;24.70;;;22.60;;
57846;SDS011;43675;50.030;21.952;2023-04-25T01:38:45;24.20;;;22.00;;
57846;SDS011;43675;50.030;21.952;2023-04-25T01:41:11;24.70;;;22.60;;
57846;SDS011;43675;50.030;21.952;2023-04-25T01:43:39;24.10;;;22.20;;
57846;SDS011;43675;50.030;21.952;2023-04-25T01:46:06;24.20;;;22.20;;
57846;SDS011;43675;50.030;21.952;2023-04-25T01:48:33;24.20;;;22.10;;
57846;SDS011;43675;50.030;21.952;2023-04-25T01:50:59;25.00;;;22.80;;
57846;SDS011;43675;50.030;21.952;2023-04-25T01:53:26;25.00;;;22.80;;
57846;SDS011;43675;50.030;21.952;2023-04-25T01:55:53;25.30;;;23.00;;
57846;SDS011;43675;50.030;21.952;2023-04-25T01:58:19;25.70;;;23.60;;
57846;SDS011;43675;50.030;21.952;2023-04-25T02:00:46;24.70;;;22.50;;
57846;SDS011;43675;50.030;21.952;2023-04-25T02:03:12;23.40;;;21.40;;
57846;SDS011;43675;50.030;21.952;2023-04-25T02:05:39;24.70;;;22.60;;
57846;SDS011;43675;50.030;21.952;2023-04-25T02:08:06;25.70;;;23.20;;
57846;SDS011;43675;50.030;21.952;2023-04-25T02:10:34;25.50;;;23.40;;
57846;SDS011;43675;50.030;21.952;2023-04-25T02:13:02;25.30;;;23.20;;
57846;SDS011;43675;50.030;21.952;2023-04-25T02:15:29;26.30;;;24.00;;
57846;SDS011;43675;50.030;21.952;2023-04-25T02:17:55;26.40;;;24.00;;
57846;SDS011;43675;50.030;21.952;2023-04-25T02:20:22;25.80;;;23.60;;
57846;SDS011;43675;50.030;21.952;2023-04-25T02:22:50;27.90;;;25.30;;
57846;SDS011;43675;50.030;21.952;2023-04-25T02:25:17;26.80;;;24.40;;
57846;SDS011;43675;50.030;21.952;2023-04-25T02:27:44;26.50;;;24.30;;
57846;SDS011;43675;50.030;21.952;2023-04-25T02:30:11;27.10;;;24.70;;
57846;SDS011;43675;50.030;21.952;2023-04-25T02:32:38;27.20;;;24.80;;
57846;SDS011;43675;50.030;21.952;2023-04-25T02:35:06;27.90;;;25.50;;
57846;SDS011;43675;50.030;21.952;2023-04-25T02:37:33;27.80;;;25.50;;
57846;SDS011;43675;50.030;21.952;2023-04-25T02:40:01;28.10;;;25.50;;
57846;SDS011;43675;50.030;21.952;2023-04-25T02:42:28;29.30;;;26.70;;
57846;SDS011;43675;50.030;21.952;2023-04-25T02:44:55;29.20;;;26.50;;
57846;SDS011;43675;50.030;21.952;2023-04-25T02:47:21;28.50;;;25.90;;
57846;SDS011;43675;50.030;21.952;2023-04-25T02:49:48;28.30;;;25.90;;
57846;SDS011;43675;50.030;21.952;2023-04-25T02:52:14;29.90;;;27.10;;
57846;SDS011;43675;50.030;21.952;2023-04-25T02:54:41;28.90;;;26.10;;
57846;SDS011;43675;50.030;21.952;2023-04-25T02:57:08;29.80;;;27.10;;
57846;SDS011;43675;50.030;21.952;2023-04-25T02:59:34;29.20;;;26.30;;
57846;SDS011;43675;50.030;21.952;2023-04-25T03:02:01;30.10;;;27.20;;
57846;SDS011;43675;50.030;21.952;2023-04-25T03:04:27;30.10;;;27.20;;
57846;SDS011;43675;50.030;21.952;2023-04-25T03:06:54;30.30;;;27.40;;
57846;SDS011;43675;50.030;21.952;2023-04-25T03:09:21;30.30;;;27.40;;
57846;SDS011;43675;50.030;21.952;2023-04-25T03:11:47;29.90;;;27.20;;
57846;SDS011;43675;50.030;21.952;2023-04-25T03:14:14;29.60;;;26.80;;
57846;SDS011;43675;50.030;21.952;2023-04-25T03:16:40;29.90;;;27.20;;
57846;SDS011;43675;50.030;21.952;2023-04-25T03:19:07;31.40;;;28.40;;
57846;SDS011;43675;50.030;21.952;2023-04-25T03:21:34;30.30;;;27.20;;
57846;SDS011;43675;50.030;21.952;2023-04-25T03:24:02;29.30;;;26.50;;
57846;SDS011;43675;50.030;21.952;2023-04-25T03:26:30;28.50;;;25.80;;
57846;SDS011;43675;50.030;21.952;2023-04-25T03:28:57;28.60;;;25.80;;
57846;SDS011;43675;50.030;21.952;2023-04-25T03:31:23;28.10;;;25.60;;
57846;SDS011;43675;50.030;21.952;2023-04-25T03:33:50;26.90;;;24.30;;
57846;SDS011;43675;50.030;21.952;2023-04-25T03:36:16;28.50;;;25.80;;
57846;SDS011;43675;50.030;21.952;2023-04-25T03:38:43;28.90;;;26.30;;
57846;SDS011;43675;50.030;21.952;2023-04-25T03:41:09;29.30;;;26.60;;
57846;SDS011;43675;50.030;21.952;2023-04-25T03:43:36;29.00;;;26.40;;
57846;SDS011;43675;50.030;21.952;2023-04-25T03:46:02;28.70;;;26.00;;
57846;SDS011;43675;50.030;21.952;2023-04-25T03:48:29;29.30;;;26.50;;
57846;SDS011;43675;50.030;21.952;2023-04-25T03:50:55;28.40;;;25.50;;
57846;SDS011;43675;50.030;21.952;2023-04-25T03:53:22;29.30;;;26.50;;
57846;SDS011;43675;50.030;21.952;2023-04-25T03:55:49;29.10;;;26.40;;
57846;SDS011;43675;50.030;21.952;2023-04-25T03:58:15;29.00;;;26.10;;
57846;SDS011;43675;50.030;21.952;2023-04-25T04:00:42;29.50;;;26.70;;
57846;SDS011;43675;50.030;21.952;2023-04-25T04:03:08;31.00;;;28.00;;
57846;SDS011;43675;50.030;21.952;2023-04-25T04:05:35;31.30;;;28.20;;
57846;SDS011;43675;50.030;21.952;2023-04-25T04:08:01;31.30;;;28.30;;
57846;SDS011;43675;50.030;21.952;2023-04-25T04:10:28;29.60;;;26.90;;
57846;SDS011;43675;50.030;21.952;2023-04-25T04:12:54;29.20;;;26.40;;
57846;SDS011;43675;50.030;21.952;2023-04-25T04:15:21;29.20;;;26.40;;
57846;SDS011;43675;50.030;21.952;2023-04-25T04:17:48;29.20;;;26.20;;
57846;SDS011;43675;50.030;21.952;2023-04-25T04:20:15;28.80;;;26.00;;
57846;SDS011;43675;50.030;21.952;2023-04-25T04:22:41;29.00;;;26.30;;
57846;SDS011;43675;50.030;21.952;2023-04-25T04:25:08;29.10;;;26.30;;
57846;SDS011;43675;50.030;21.952;2023-04-25T04:27:35;28.00;;;25.30;;
57846;SDS011;43675;50.030;21.952;2023-04-25T04:30:01;28.10;;;25.40;;
57846;SDS011;43675;50.030;21.952;2023-04-25T04:32:28;29.90;;;25.90;;
57846;SDS011;43675;50.030;21.952;2023-04-25T04:34:55;28.00;;;25.40;;
57846;SDS011;43675;50.030;21.952;2023-04-25T04:37:21;28.20;;;25.70;;
57846;SDS011;43675;50.030;21.952;2023-04-25T04:39:47;26.90;;;24.20;;
57846;SDS011;43675;50.030;21.952;2023-04-25T04:42:14;26.70;;;24.30;;
57846;SDS011;43675;50.030;21.952;2023-04-25T04:44:40;26.90;;;24.40;;
57846;SDS011;43675;50.030;21.952;2023-04-25T04:47:07;25.70;;;23.40;;
57846;SDS011;43675;50.030;21.952;2023-04-25T04:49:34;25.90;;;23.50;;
57846;SDS011;43675;50.030;21.952;2023-04-25T04:52:00;26.50;;;24.00;;
57846;SDS011;43675;50.030;21.952;2023-04-25T04:54:27;26.80;;;24.40;;
57846;SDS011;43675;50.030;21.952;2023-04-25T04:56:53;26.70;;;24.30;;
57846;SDS011;43675;50.030;21.952;2023-04-25T04:59:20;25.70;;;23.40;;
57846;SDS011;43675;50.030;21.952;2023-04-25T05:01:46;26.00;;;23.70;;
57846;SDS011;43675;50.030;21.952;2023-04-25T05:04:13;26.00;;;23.70;;
57846;SDS011;43675;50.030;21.952;2023-04-25T05:06:39;26.50;;;24.00;;
57846;SDS011;43675;50.030;21.952;2023-04-25T05:09:06;26.10;;;23.70;;
57846;SDS011;43675;50.030;21.952;2023-04-25T05:11:32;25.80;;;23.50;;
57846;SDS011;43675;50.030;21.952;2023-04-25T05:13:59;25.50;;;23.20;;
57846;SDS011;43675;50.030;21.952;2023-04-25T05:16:25;26.60;;;24.30;;
57846;SDS011;43675;50.030;21.952;2023-04-25T05:18:52;26.50;;;24.00;;
57846;SDS011;43675;50.030;21.952;2023-04-25T05:21:18;26.30;;;23.90;;
57846;SDS011;43675;50.030;21.952;2023-04-25T05:23:45;26.10;;;23.80;;
57846;SDS011;43675;50.030;21.952;2023-04-25T05:26:12;25.80;;;23.60;;
57846;SDS011;43675;50.030;21.952;2023-04-25T05:28:38;24.90;;;22.90;;
57846;SDS011;43675;50.030;21.952;2023-04-25T05:31:06;24.60;;;22.50;;
57846;SDS011;43675;50.030;21.952;2023-04-25T05:33:32;25.50;;;23.20;;
57846;SDS011;43675;50.030;21.952;2023-04-25T05:35:59;27.80;;;25.00;;
57846;SDS011;43675;50.030;21.952;2023-04-25T05:38:25;25.70;;;23.20;;
57846;SDS011;43675;50.030;21.952;2023-04-25T05:40:52;25.60;;;23.20;;
57846;SDS011;43675;50.030;21.952;2023-04-25T05:43:18;26.30;;;23.80;;
57846;SDS011;43675;50.030;21.952;2023-04-25T05:45:45;26.30;;;23.80;;
57846;SDS011;43675;50.030;21.952;2023-04-25T05:48:12;26.10;;;23.70;;
57846;SDS011;43675;50.030;21.952;2023-04-25T05:50:38;26.00;;;23.60;;
57846;SDS011;43675;50.030;21.952;2023-04-25T05:53:05;26.80;;;24.20;;
57846;SDS011;43675;50.030;21.952;2023-04-25T05:55:31;26.00;;;23.60;;
57846;SDS011;43675;50.030;21.952;2023-04-25T05:57:58;26.70;;;24.20;;
57846;SDS011;43675;50.030;21.952;2023-04-25T06:00:24;27.20;;;24.50;;
57846;SDS011;43675;50.030;21.952;2023-04-25T06:02:51;27.50;;;24.90;;
57846;SDS011;43675;50.030;21.952;2023-04-25T06:05:17;27.40;;;24.80;;
57846;SDS011;43675;50.030;21.952;2023-04-25T06:07:44;29.10;;;26.30;;
57846;SDS011;43675;50.030;21.952;2023-04-25T06:10:10;28.70;;;25.70;;
57846;SDS011;43675;50.030;21.952;2023-04-25T06:12:37;29.70;;;26.70;;
57846;SDS011;43675;50.030;21.952;2023-04-25T06:15:04;32.40;;;29.00;;
57846;SDS011;43675;50.030;21.952;2023-04-25T06:17:32;32.60;;;29.10;;
57846;SDS011;43675;50.030;21.952;2023-04-25T06:19:59;33.50;;;29.90;;
57846;SDS011;43675;50.030;21.952;2023-04-25T06:22:25;32.30;;;29.10;;
57846;SDS011;43675;50.030;21.952;2023-04-25T06:24:52;34.20;;;30.80;;
57846;SDS011;43675;50.030;21.952;2023-04-25T06:27:18;34.40;;;30.70;;
57846;SDS011;43675;50.030;21.952;2023-04-25T06:29:45;38.20;;;34.10;;
57846;SDS011;43675;50.030;21.952;2023-04-25T06:32:11;38.20;;;34.10;;
57846;SDS011;43675;50.030;21.952;2023-04-25T06:34:38;40.70;;;35.80;;
57846;SDS011;43675;50.030;21.952;2023-04-25T06:37:04;42.70;;;37.80;;
57846;SDS011;43675;50.030;21.952;2023-04-25T06:39:31;41.90;;;36.40;;
57846;SDS011;43675;50.030;21.952;2023-04-25T06:41:57;39.10;;;34.80;;
57846;SDS011;43675;50.030;21.952;2023-04-25T06:44:24;39.50;;;35.30;;
57846;SDS011;43675;50.030;21.952;2023-04-25T06:46:50;40.60;;;36.30;;
57846;SDS011;43675;50.030;21.952;2023-04-25T06:49:17;38.50;;;34.60;;
57846;SDS011;43675;50.030;21.952;2023-04-25T06:51:43;35.10;;;31.50;;
57846;SDS011;43675;50.030;21.952;2023-04-25T06:54:10;32.50;;;29.20;;
57846;SDS011;43675;50.030;21.952;2023-04-25T06:56:36;27.80;;;25.10;;
57846;SDS011;43675;50.030;21.952;2023-04-25T06:59:03;25.50;;;23.00;;
57846;SDS011;43675;50.030;21.952;2023-04-25T07:01:29;25.20;;;22.80;;
57846;SDS011;43675;50.030;21.952;2023-04-25T07:03:56;23.80;;;21.40;;
57846;SDS011;43675;50.030;21.952;2023-04-25T07:06:22;24.10;;;21.90;;
57846;SDS011;43675;50.030;21.952;2023-04-25T07:08:49;24.50;;;22.10;;
57846;SDS011;43675;50.030;21.952;2023-04-25T07:11:16;24.20;;;22.00;;
57846;SDS011;43675;50.030;21.952;2023-04-25T07:13:42;24.60;;;22.30;;
57846;SDS011;43675;50.030;21.952;2023-04-25T07:16:08;24.00;;;21.80;;
57846;SDS011;43675;50.030;21.952;2023-04-25T07:18:35;21.90;;;19.70;;
57846;SDS011;43675;50.030;21.952;2023-04-25T07:21:02;22.90;;;20.70;;
57846;SDS011;43675;50.030;21.952;2023-04-25T07:23:28;20.30;;;18.40;;
57846;SDS011;43675;50.030;21.952;2023-04-25T07:25:55;20.00;;;18.20;;
57846;SDS011;43675;50.030;21.952;2023-04-25T07:28:21;19.50;;;17.70;;
57846;SDS011;43675;50.030;21.952;2023-04-25T07:30:48;18.50;;;16.90;;
57846;SDS011;43675;50.030;21.952;2023-04-25T07:33:15;18.50;;;16.90;;
57846;SDS011;43675;50.030;21.952;2023-04-25T07:35:41;18.40;;;16.90;;
57846;SDS011;43675;50.030;21.952;2023-04-25T07:38:08;18.40;;;17.00;;
57846;SDS011;43675;50.030;21.952;2023-04-25T07:40:34;19.20;;;17.60;;
57846;SDS011;43675;50.030;21.952;2023-04-25T07:43:00;19.40;;;17.80;;
57846;SDS011;43675;50.030;21.952;2023-04-25T07:45:27;18.90;;;17.40;;
57846;SDS011;43675;50.030;21.952;2023-04-25T07:47:53;18.20;;;16.80;;
57846;SDS011;43675;50.030;21.952;2023-04-25T07:50:20;20.10;;;18.60;;
57846;SDS011;43675;50.030;21.952;2023-04-25T07:52:47;20.20;;;18.70;;
57846;SDS011;43675;50.030;21.952;2023-04-25T07:55:14;22.80;;;21.10;;
57846;SDS011;43675;50.030;21.952;2023-04-25T07:57:40;23.40;;;21.80;;
57846;SDS011;43675;50.030;21.952;2023-04-25T08:00:07;24.10;;;22.40;;
57846;SDS011;43675;50.030;21.952;2023-04-25T08:02:34;24.40;;;22.70;;
57846;SDS011;43675;50.030;21.952;2023-04-25T08:05:01;26.10;;;24.20;;
57846;SDS011;43675;50.030;21.952;2023-04-25T08:07:28;26.40;;;24.60;;
57846;SDS011;43675;50.030;21.952;2023-04-25T08:09:55;26.70;;;24.70;;
57846;SDS011;43675;50.030;21.952;2023-04-25T08:12:21;28.10;;;25.90;;
57846;SDS011;43675;50.030;21.952;2023-04-25T08:14:48;28.60;;;26.50;;
57846;SDS011;43675;50.030;21.952;2023-04-25T08:17:14;30.20;;;27.90;;
57846;SDS011;43675;50.030;21.952;2023-04-25T08:19:41;31.90;;;29.40;;
57846;SDS011;43675;50.030;21.952;2023-04-25T08:22:07;32.50;;;29.90;;
57846;SDS011;43675;50.030;21.952;2023-04-25T08:24:34;31.80;;;29.20;;
57846;SDS011;43675;50.030;21.952;2023-04-25T08:27:00;32.80;;;30.10;;
57846;SDS011;43675;50.030;21.952;2023-04-25T08:29:27;33.90;;;31.10;;
57846;SDS011;43675;50.030;21.952;2023-04-25T08:31:53;34.10;;;31.20;;
57846;SDS011;43675;50.030;21.952;2023-04-25T08:34:20;35.60;;;32.40;;
57846;SDS011;43675;50.030;21.952;2023-04-25T08:36:46;38.20;;;34.70;;
57846;SDS011;43675;50.030;21.952;2023-04-25T08:39:13;37.20;;;33.70;;
57846;SDS011;43675;50.030;21.952;2023-04-25T08:41:40;38.20;;;34.60;;
57846;SDS011;43675;50.030;21.952;2023-04-25T08:44:08;38.50;;;35.00;;
57846;SDS011;43675;50.030;21.952;2023-04-25T08:46:39;39.80;;;36.10;;
57846;SDS011;43675;50.030;21.952;2023-04-25T08:49:07;40.70;;;37.00;;
57846;SDS011;43675;50.030;21.952;2023-04-25T08:51:34;41.00;;;37.20;;
57846;SDS011;43675;50.030;21.952;2023-04-25T08:56:46;40.60;;;36.60;;
57846;SDS011;43675;50.030;21.952;2023-04-25T08:59:13;39.50;;;35.40;;
57846;SDS011;43675;50.030;21.952;2023-04-25T09:01:40;41.30;;;37.30;;
57846;SDS011;43675;50.030;21.952;2023-04-25T09:04:07;41.40;;;37.40;;
57846;SDS011;43675;50.030;21.952;2023-04-25T09:06:33;43.70;;;39.40;;
57846;SDS011;43675;50.030;21.952;2023-04-25T09:09:02;41.30;;;37.20;;
57846;SDS011;43675;50.030;21.952;2023-04-25T09:11:29;43.70;;;39.40;;
57846;SDS011;43675;50.030;21.952;2023-04-25T09:16:58;43.20;;;38.90;;
57846;SDS011;43675;50.030;21.952;2023-04-25T09:19:30;44.80;;;40.40;;
57846;SDS011;43675;50.030;21.952;2023-04-25T09:21:59;41.60;;;37.30;;
57846;SDS011;43675;50.030;21.952;2023-04-25T09:24:34;41.80;;;37.60;;
57846;SDS011;43675;50.030;21.952;2023-04-25T09:27:06;37.90;;;34.00;;
57846;SDS011;43675;50.030;21.952;2023-04-25T09:29:35;39.90;;;35.60;;
57846;SDS011;43675;50.030;21.952;2023-04-25T09:35:03;40.30;;;35.00;;
57846;SDS011;43675;50.030;21.952;2023-04-25T09:39:57;43.10;;;35.70;;
57846;SDS011;43675;50.030;21.952;2023-04-25T09:42:26;40.90;;;34.70;;
57846;SDS011;43675;50.030;21.952;2023-04-25T09:44:55;41.70;;;35.00;;
57846;SDS011;43675;50.030;21.952;2023-04-25T09:47:23;44.50;;;37.60;;
57846;SDS011;43675;50.030;21.952;2023-04-25T09:49:52;41.30;;;34.20;;
57846;SDS011;43675;50.030;21.952;2023-04-25T09:52:23;42.40;;;37.70;;
57846;SDS011;43675;50.030;21.952;2023-04-25T09:54:51;44.00;;;36.30;;
57846;SDS011;43675;50.030;21.952;2023-04-25T09:57:21;45.70;;;37.80;;
57846;SDS011;43675;50.030;21.952;2023-04-25T09:59:51;44.90;;;40.10;;
57846;SDS011;43675;50.030;21.952;2023-04-25T10:02:20;46.00;;;41.10;;
57846;SDS011;43675;50.030;21.952;2023-04-25T10:04:50;47.60;;;42.70;;
57846;SDS011;43675;50.030;21.952;2023-04-25T10:07:19;46.30;;;41.80;;
57846;SDS011;43675;50.030;21.952;2023-04-25T10:09:49;45.80;;;41.20;;
57846;SDS011;43675;50.030;21.952;2023-04-25T10:12:20;43.30;;;38.90;;
57846;SDS011;43675;50.030;21.952;2023-04-25T10:14:48;44.80;;;39.90;;
57846;SDS011;43675;50.030;21.952;2023-04-25T10:17:15;45.70;;;41.10;;
57846;SDS011;43675;50.030;21.952;2023-04-25T10:19:42;44.10;;;39.30;;
57846;SDS011;43675;50.030;21.952;2023-04-25T10:22:14;44.20;;;39.10;;
57846;SDS011;43675;50.030;21.952;2023-04-25T10:24:46;46.80;;;41.80;;
57846;SDS011;43675;50.030;21.952;2023-04-25T10:27:13;44.50;;;39.50;;
57846;SDS011;43675;50.030;21.952;2023-04-25T10:29:40;44.20;;;39.60;;
57846;SDS011;43675;50.030;21.952;2023-04-25T10:32:07;45.80;;;40.40;;
57846;SDS011;43675;50.030;21.952;2023-04-25T10:34:41;44.60;;;39.90;;
57846;SDS011;43675;50.030;21.952;2023-04-25T10:37:09;45.90;;;41.30;;
57846;SDS011;43675;50.030;21.952;2023-04-25T10:39:37;45.40;;;40.20;;
57846;SDS011;43675;50.030;21.952;2023-04-25T10:42:07;45.10;;;40.20;;
57846;SDS011;43675;50.030;21.952;2023-04-25T10:44:35;46.80;;;41.90;;
57846;SDS011;43675;50.030;21.952;2023-04-25T10:47:03;45.30;;;40.30;;
57846;SDS011;43675;50.030;21.952;2023-04-25T10:49:34;46.60;;;41.80;;
57846;SDS011;43675;50.030;21.952;2023-04-25T10:54:49;46.50;;;41.70;;
57846;SDS011;43675;50.030;21.952;2023-04-25T11:00:12;49.00;;;43.90;;
57846;SDS011;43675;50.030;21.952;2023-04-25T11:03:02;49.50;;;44.20;;
57846;SDS011;43675;50.030;21.952;2023-04-25T11:05:35;49.70;;;44.70;;
57846;SDS011;43675;50.030;21.952;2023-04-25T11:08:02;46.00;;;41.50;;
57846;SDS011;43675;50.030;21.952;2023-04-25T11:10:37;41.90;;;37.70;;
57846;SDS011;43675;50.030;21.952;2023-04-25T11:13:06;44.00;;;39.70;;
57846;SDS011;43675;50.030;21.952;2023-04-25T11:15:32;42.80;;;38.60;;
57846;SDS011;43675;50.030;21.952;2023-04-25T11:17:59;43.00;;;38.70;;
57846;SDS011;43675;50.030;21.952;2023-04-25T11:20:25;42.50;;;38.30;;
57846;SDS011;43675;50.030;21.952;2023-04-25T11:22:52;44.80;;;40.40;;
57846;SDS011;43675;50.030;21.952;2023-04-25T11:25:19;42.90;;;38.60;;
57846;SDS011;43675;50.030;21.952;2023-04-25T11:27:55;41.60;;;37.50;;
57846;SDS011;43675;50.030;21.952;2023-04-25T11:30:24;39.50;;;35.40;;
57846;SDS011;43675;50.030;21.952;2023-04-25T11:32:52;38.30;;;34.50;;
57846;SDS011;43675;50.030;21.952;2023-04-25T11:35:19;40.80;;;36.80;;
57846;SDS011;43675;50.030;21.952;2023-04-25T11:37:46;41.80;;;37.60;;
57846;SDS011;43675;50.030;21.952;2023-04-25T11:40:13;46.00;;;41.20;;
57846;SDS011;43675;50.030;21.952;2023-04-25T11:42:43;44.30;;;39.70;;
57846;SDS011;43675;50.030;21.952;2023-04-25T11:45:11;44.90;;;40.40;;
57846;SDS011;43675;50.030;21.952;2023-04-25T11:47:38;45.40;;;40.50;;
57846;SDS011;43675;50.030;21.952;2023-04-25T11:50:06;42.20;;;38.00;;
57846;SDS011;43675;50.030;21.952;2023-04-25T11:55:05;44.50;;;39.90;;
57846;SDS011;43675;50.030;21.952;2023-04-25T11:57:33;41.70;;;36.30;;
57846;SDS011;43675;50.030;21.952;2023-04-25T12:00:10;41.50;;;37.50;;
57846;SDS011;43675;50.030;21.952;2023-04-25T12:02:42;38.10;;;34.30;;
57846;SDS011;43675;50.030;21.952;2023-04-25T12:05:10;37.90;;;34.10;;
57846;SDS011;43675;50.030;21.952;2023-04-25T12:07:38;38.80;;;35.00;;
57846;SDS011;43675;50.030;21.952;2023-04-25T12:10:08;37.20;;;33.50;;
57846;SDS011;43675;50.030;21.952;2023-04-25T12:12:44;35.80;;;32.20;;
57846;SDS011;43675;50.030;21.952;2023-04-25T12:15:13;29.60;;;27.00;;
57846;SDS011;43675;50.030;21.952;2023-04-25T12:17:44;32.30;;;29.10;;
57846;SDS011;43675;50.030;21.952;2023-04-25T12:20:17;28.70;;;26.10;;
57846;SDS011;43675;50.030;21.952;2023-04-25T12:22:47;29.20;;;26.20;;
57846;SDS011;43675;50.030;21.952;2023-04-25T12:28:17;27.50;;;25.00;;
57846;SDS011;43675;50.030;21.952;2023-04-25T12:31:04;26.80;;;24.20;;
57846;SDS011;43675;50.030;21.952;2023-04-25T12:33:33;27.80;;;25.20;;
57846;SDS011;43675;50.030;21.952;2023-04-25T12:36:01;28.40;;;25.90;;
57846;SDS011;43675;50.030;21.952;2023-04-25T12:38:29;28.00;;;25.50;;
57846;SDS011;43675;50.030;21.952;2023-04-25T12:40:57;29.40;;;26.50;;
57846;SDS011;43675;50.030;21.952;2023-04-25T12:43:24;29.10;;;26.30;;
57846;SDS011;43675;50.030;21.952;2023-04-25T12:45:54;29.30;;;26.50;;
57846;SDS011;43675;50.030;21.952;2023-04-25T12:48:22;29.70;;;27.20;;
57846;SDS011;43675;50.030;21.952;2023-04-25T12:50:50;30.80;;;28.00;;
57846;SDS011;43675;50.030;21.952;2023-04-25T12:53:18;31.20;;;28.30;;
57846;SDS011;43675;50.030;21.952;2023-04-25T12:55:46;32.40;;;29.20;;
57846;SDS011;43675;50.030;21.952;2023-04-25T12:58:13;31.90;;;28.70;;
57846;SDS011;43675;50.030;21.952;2023-04-25T13:00:43;30.00;;;27.20;;
57846;SDS011;43675;50.030;21.952;2023-04-25T13:03:10;31.00;;;28.20;;
57846;SDS011;43675;50.030;21.952;2023-04-25T13:05:37;31.00;;;27.90;;
57846;SDS011;43675;50.030;21.952;2023-04-25T13:08:05;32.00;;;28.90;;
57846;SDS011;43675;50.030;21.952;2023-04-25T13:10:31;34.10;;;30.70;;
57846;SDS011;43675;50.030;21.952;2023-04-25T13:12:58;49.70;;;45.40;;
57846;SDS011;43675;50.030;21.952;2023-04-25T13:15:24;53.60;;;48.90;;
57846;SDS011;43675;50.030;21.952;2023-04-25T13:17:51;54.60;;;49.60;;
57846;SDS011;43675;50.030;21.952;2023-04-25T13:20:17;51.90;;;45.30;;
57846;SDS011;43675;50.030;21.952;2023-04-25T13:22:44;51.50;;;45.30;;
57846;SDS011;43675;50.030;21.952;2023-04-25T13:25:10;54.50;;;47.10;;
57846;SDS011;43675;50.030;21.952;2023-04-25T13:27:37;55.70;;;49.40;;
57846;SDS011;43675;50.030;21.952;2023-04-25T13:30:04;52.80;;;47.00;;
57846;SDS011;43675;50.030;21.952;2023-04-25T13:32:31;54.00;;;48.20;;
57846;SDS011;43675;50.030;21.952;2023-04-25T13:34:59;57.00;;;49.40;;
57846;SDS011;43675;50.030;21.952;2023-04-25T13:37:25;53.60;;;45.10;;
57846;SDS011;43675;50.030;21.952;2023-04-25T13:39:52;54.10;;;46.80;;
57846;SDS011;43675;50.030;21.952;2023-04-25T13:42:18;52.50;;;45.40;;
57846;SDS011;43675;50.030;21.952;2023-04-25T13:44:45;56.60;;;49.70;;
57846;SDS011;43675;50.030;21.952;2023-04-25T13:47:11;56.00;;;49.70;;
57846;SDS011;43675;50.030;21.952;2023-04-25T13:49:38;54.20;;;48.30;;
57846;SDS011;43675;50.030;21.952;2023-04-25T13:52:04;58.70;;;48.90;;
57846;SDS011;43675;50.030;21.952;2023-04-25T13:54:31;57.60;;;51.40;;
57846;SDS011;43675;50.030;21.952;2023-04-25T13:56:57;57.70;;;51.20;;
57846;SDS011;43675;50.030;21.952;2023-04-25T13:59:24;58.40;;;47.40;;
57846;SDS011;43675;50.030;21.952;2023-04-25T14:01:51;56.80;;;46.50;;
57846;SDS011;43675;50.030;21.952;2023-04-25T14:04:18;51.00;;;44.00;;
57846;SDS011;43675;50.030;21.952;2023-04-25T14:06:44;51.40;;;45.80;;
57846;SDS011;43675;50.030;21.952;2023-04-25T14:09:11;55.10;;;49.40;;
57846;SDS011;43675;50.030;21.952;2023-04-25T14:11:37;53.70;;;47.80;;
57846;SDS011;43675;50.030;21.952;2023-04-25T14:14:04;54.60;;;47.70;;
57846;SDS011;43675;50.030;21.952;2023-04-25T14:16:31;54.00;;;45.50;;
57846;SDS011;43675;50.030;21.952;2023-04-25T14:18:58;58.70;;;51.70;;
57846;SDS011;43675;50.030;21.952;2023-04-25T14:21:25;53.90;;;48.30;;
57846;SDS011;43675;50.030;21.952;2023-04-25T14:23:51;51.70;;;46.10;;
57846;SDS011;43675;50.030;21.952;2023-04-25T14:26:18;53.50;;;46.50;;
57846;SDS011;43675;50.030;21.952;2023-04-25T14:28:45;56.00;;;49.80;;
57846;SDS011;43675;50.030;21.952;2023-04-25T14:31:11;52.40;;;46.70;;